sensor_id;sensor_type;location;lat;lon;timestamp;pressure;altitude;pressure_sealevel;temperature;humidity
68075;BME280;54864;52.002;5.468;2023-04-20T00:00:16;102238.41;;;8.82;39.46
68075;BME280;54864;52.002;5.468;2023-04-20T00:01:17;102241.03;;;8.84;38.85
68075;BME280;54864;52.002;5.468;2023-04-20T00:02:18;102236.59;;;8.87;39.89
68075;BME280;54864;52.002;5.468;2023-04-20T00:03:22;102233.06;;;8.88;40.33
68075;BME280;54864;52.002;5.468;2023-04-20T00:04:22;102228.69;;;8.87;41.10
68075;BME280;54864;52.002;5.468;2023-04-20T00:05:24;102228.69;;;8.87;41.15
68075;BME280;54864;52.002;5.468;2023-04-20T00:06:25;102228.75;;;8.83;40.39
68075;BME280;54864;52.002;5.468;2023-04-20T00:07:28;102231.41;;;8.81;40.42
68075;BME280;54864;52.002;5.468;2023-04-20T00:08:29;102228.09;;;8.70;40.02
68075;BME280;54864;52.002;5.468;2023-04-20T00:09:31;102226.31;;;8.72;40.56
68075;BME280;54864;52.002;5.468;2023-04-20T00:10:31;102223.66;;;8.74;39.17
68075;BME280;54864;52.002;5.468;2023-04-20T00:11:33;102220.28;;;8.64;39.87
68075;BME280;54864;52.002;5.468;2023-04-20T00:12:34;102223.78;;;8.65;40.52
68075;BME280;54864;52.002;5.468;2023-04-20T00:13:36;102217.59;;;8.69;40.29
68075;BME280;54864;52.002;5.468;2023-04-20T00:14:36;102219.50;;;8.57;40.04
68075;BME280;54864;52.002;5.468;2023-04-20T00:15:38;102213.56;;;8.43;40.20
68075;BME280;54864;52.002;5.468;2023-04-20T00:16:39;102212.69;;;8.43;38.87
68075;BME280;54864;52.002;5.468;2023-04-20T00:17:41;102211.94;;;8.32;39.17
68075;BME280;54864;52.002;5.468;2023-04-20T00:18:45;102207.56;;;8.32;39.92
68075;BME280;54864;52.002;5.468;2023-04-20T00:19:47;102204.78;;;8.44;40.79
68075;BME280;54864;52.002;5.468;2023-04-20T00:20:47;102208.28;;;8.46;40.60
68075;BME280;54864;52.002;5.468;2023-04-20T00:21:49;102205.69;;;8.43;40.09
68075;BME280;54864;52.002;5.468;2023-04-20T00:22:50;102197.06;;;8.31;40.20
68075;BME280;54864;52.002;5.468;2023-04-20T00:23:52;102198.75;;;8.38;40.63
68075;BME280;54864;52.002;5.468;2023-04-20T00:24:52;102196.09;;;8.39;40.04
68075;BME280;54864;52.002;5.468;2023-04-20T00:25:54;102188.28;;;8.35;41.00
68075;BME280;54864;52.002;5.468;2023-04-20T00:26:55;102186.44;;;8.41;40.75
68075;BME280;54864;52.002;5.468;2023-04-20T00:27:56;102191.88;;;8.26;39.07
68075;BME280;54864;52.002;5.468;2023-04-20T00:28:57;102189.25;;;8.24;39.50
68075;BME280;54864;52.002;5.468;2023-04-20T00:29:59;102188.31;;;8.30;39.82
68075;BME280;54864;52.002;5.468;2023-04-20T00:31:00;102181.28;;;8.31;40.40
68075;BME280;54864;52.002;5.468;2023-04-20T00:32:01;102177.78;;;8.35;40.86
68075;BME280;54864;52.002;5.468;2023-04-20T00:33:02;102173.47;;;8.27;40.62
68075;BME280;54864;52.002;5.468;2023-04-20T00:34:05;102169.00;;;8.36;40.72
68075;BME280;54864;52.002;5.468;2023-04-20T00:35:06;102167.13;;;8.45;40.88
68075;BME280;54864;52.002;5.468;2023-04-20T00:36:08;102174.28;;;8.34;39.61
68075;BME280;54864;52.002;5.468;2023-04-20T00:37:09;102159.44;;;8.28;39.60
68075;BME280;54864;52.002;5.468;2023-04-20T00:38:11;102168.41;;;8.12;39.18
68075;BME280;54864;52.002;5.468;2023-04-20T00:39:12;102163.19;;;8.11;39.81
68075;BME280;54864;52.002;5.468;2023-04-20T00:40:13;102161.44;;;8.10;40.45
68075;BME280;54864;52.002;5.468;2023-04-20T00:41:14;102157.16;;;8.04;41.02
68075;BME280;54864;52.002;5.468;2023-04-20T00:42:16;102164.84;;;8.18;40.54
68075;BME280;54864;52.002;5.468;2023-04-20T00:43:16;102156.22;;;8.08;40.33
68075;BME280;54864;52.002;5.468;2023-04-20T00:44:18;102163.94;;;8.20;40.77
68075;BME280;54864;52.002;5.468;2023-04-20T00:45:19;102156.81;;;8.28;40.27
68075;BME280;54864;52.002;5.468;2023-04-20T00:46:21;102148.06;;;8.26;39.83
68075;BME280;54864;52.002;5.468;2023-04-20T00:47:22;102152.38;;;8.32;40.62
68075;BME280;54864;52.002;5.468;2023-04-20T00:48:23;102144.63;;;8.23;40.18
68075;BME280;54864;52.002;5.468;2023-04-20T00:49:27;102142.75;;;8.31;40.89
68075;BME280;54864;52.002;5.468;2023-04-20T00:50:30;102136.53;;;8.40;41.35
68075;BME280;54864;52.002;5.468;2023-04-20T00:51:31;102139.44;;;8.18;40.48
68075;BME280;54864;52.002;5.468;2023-04-20T00:52:33;102146.44;;;8.18;40.21
68075;BME280;54864;52.002;5.468;2023-04-20T00:53:33;102146.38;;;8.22;39.89
68075;BME280;54864;52.002;5.468;2023-04-20T00:54:35;102137.50;;;8.31;41.17
68075;BME280;54864;52.002;5.468;2023-04-20T00:55:36;102138.34;;;8.35;40.85
68075;BME280;54864;52.002;5.468;2023-04-20T00:56:38;102134.75;;;8.42;42.12
68075;BME280;54864;52.002;5.468;2023-04-20T00:57:40;102137.31;;;8.48;40.99
68075;BME280;54864;52.002;5.468;2023-04-20T00:58:41;102131.41;;;8.27;41.47
68075;BME280;54864;52.002;5.468;2023-04-20T00:59:43;102129.59;;;8.36;40.85
68075;BME280;54864;52.002;5.468;2023-04-20T01:00:45;102131.41;;;8.27;41.05
68075;BME280;54864;52.002;5.468;2023-04-20T01:01:46;102123.53;;;8.29;41.36
68075;BME280;54864;52.002;5.468;2023-04-20T01:02:47;102121.22;;;8.06;40.79
68075;BME280;54864;52.002;5.468;2023-04-20T01:03:48;102123.16;;;7.93;40.38
68075;BME280;54864;52.002;5.468;2023-04-20T01:04:51;102116.78;;;8.11;41.88
68075;BME280;54864;52.002;5.468;2023-04-20T01:05:53;102111.47;;;8.16;42.02
68075;BME280;54864;52.002;5.468;2023-04-20T01:06:54;102115.94;;;8.08;41.28
68075;BME280;54864;52.002;5.468;2023-04-20T01:07:55;102113.31;;;8.09;42.06
68075;BME280;54864;52.002;5.468;2023-04-20T01:08:57;102107.91;;;8.20;42.20
68075;BME280;54864;52.002;5.468;2023-04-20T01:09:57;102109.56;;;8.25;41.04
68075;BME280;54864;52.002;5.468;2023-04-20T01:10:59;102109.63;;;8.21;41.31
68075;BME280;54864;52.002;5.468;2023-04-20T01:12:00;102105.59;;;7.99;40.91
68075;BME280;54864;52.002;5.468;2023-04-20T01:13:02;102102.88;;;8.05;41.81
68075;BME280;54864;52.002;5.468;2023-04-20T01:14:03;102101.03;;;8.10;41.73
68075;BME280;54864;52.002;5.468;2023-04-20T01:15:05;102100.06;;;8.17;41.64
68075;BME280;54864;52.002;5.468;2023-04-20T01:16:07;102103.44;;;8.25;42.85
68075;BME280;54864;52.002;5.468;2023-04-20T01:17:08;102104.50;;;8.13;41.57
68075;BME280;54864;52.002;5.468;2023-04-20T01:18:09;102102.75;;;8.12;41.88
68075;BME280;54864;52.002;5.468;2023-04-20T01:19:11;102099.19;;;8.16;42.08
68075;BME280;54864;52.002;5.468;2023-04-20T01:20:13;102095.63;;;8.20;42.00
68075;BME280;54864;52.002;5.468;2023-04-20T01:21:16;102097.38;;;8.20;42.41
68075;BME280;54864;52.002;5.468;2023-04-20T01:22:19;102083.25;;;8.27;42.76
68075;BME280;54864;52.002;5.468;2023-04-20T01:23:21;102093.72;;;8.30;43.27
68075;BME280;54864;52.002;5.468;2023-04-20T01:24:22;102092.03;;;8.26;41.87
68075;BME280;54864;52.002;5.468;2023-04-20T01:25:24;102085.81;;;8.33;42.92
68075;BME280;54864;52.002;5.468;2023-04-20T01:26:26;102087.22;;;7.97;42.65
68075;BME280;54864;52.002;5.468;2023-04-20T01:27:27;102080.16;;;8.02;42.36
68075;BME280;54864;52.002;5.468;2023-04-20T01:28:28;102081.00;;;8.04;43.01
68075;BME280;54864;52.002;5.468;2023-04-20T01:29:30;102081.69;;;8.15;43.43
68075;BME280;54864;52.002;5.468;2023-04-20T01:30:32;102079.19;;;8.08;42.80
68075;BME280;54864;52.002;5.468;2023-04-20T01:31:34;102074.22;;;7.88;43.03
68075;BME280;54864;52.002;5.468;2023-04-20T01:32:35;102077.75;;;7.87;42.82
68075;BME280;54864;52.002;5.468;2023-04-20T01:33:36;102073.25;;;7.95;44.04
68075;BME280;54864;52.002;5.468;2023-04-20T01:34:37;102072.97;;;8.13;43.65
68075;BME280;54864;52.002;5.468;2023-04-20T01:35:41;102066.91;;;8.08;43.94
68075;BME280;54864;52.002;5.468;2023-04-20T01:36:42;102081.03;;;8.01;44.03
68075;BME280;54864;52.002;5.468;2023-04-20T01:37:47;102075.72;;;8.06;45.23
68075;BME280;54864;52.002;5.468;2023-04-20T01:38:48;102066.09;;;8.05;44.68
68075;BME280;54864;52.002;5.468;2023-04-20T01:39:50;102061.75;;;8.04;44.31
68075;BME280;54864;52.002;5.468;2023-04-20T01:40:51;102064.19;;;8.14;44.81
68075;BME280;54864;52.002;5.468;2023-04-20T01:41:53;102065.88;;;8.18;45.34
68075;BME280;54864;52.002;5.468;2023-04-20T01:42:54;102063.22;;;8.21;45.30
68075;BME280;54864;52.002;5.468;2023-04-20T01:43:56;102064.19;;;8.14;44.32
68075;BME280;54864;52.002;5.468;2023-04-20T01:44:57;102060.94;;;7.99;45.42
68075;BME280;54864;52.002;5.468;2023-04-20T01:45:59;102053.75;;;8.11;45.26
68075;BME280;54864;52.002;5.468;2023-04-20T01:47:00;102056.25;;;8.19;45.33
68075;BME280;54864;52.002;5.468;2023-04-20T01:48:02;102059.78;;;8.18;45.32
68075;BME280;54864;52.002;5.468;2023-04-20T01:49:03;102056.31;;;8.14;45.46
68075;BME280;54864;52.002;5.468;2023-04-20T01:50:05;102051.97;;;8.12;45.79
68075;BME280;54864;52.002;5.468;2023-04-20T01:51:06;102050.28;;;8.08;46.18
68075;BME280;54864;52.002;5.468;2023-04-20T01:52:08;102057.19;;;8.15;46.15
68075;BME280;54864;52.002;5.468;2023-04-20T01:53:11;102048.59;;;8.04;46.60
68075;BME280;54864;52.002;5.468;2023-04-20T01:54:13;102045.88;;;8.11;46.67
68075;BME280;54864;52.002;5.468;2023-04-20T01:55:13;102048.56;;;8.07;46.54
68075;BME280;54864;52.002;5.468;2023-04-20T01:56:15;102046.91;;;8.00;46.58
68075;BME280;54864;52.002;5.468;2023-04-20T01:57:16;102050.47;;;7.95;47.06
68075;BME280;54864;52.002;5.468;2023-04-20T01:58:20;102043.59;;;7.88;46.91
68075;BME280;54864;52.002;5.468;2023-04-20T01:59:21;102042.56;;;7.99;47.05
68075;BME280;54864;52.002;5.468;2023-04-20T02:00:22;102045.13;;;8.03;46.98
68075;BME280;54864;52.002;5.468;2023-04-20T02:01:23;102039.97;;;7.95;47.54
68075;BME280;54864;52.002;5.468;2023-04-20T02:02:25;102042.69;;;7.89;47.79
68075;BME280;54864;52.002;5.468;2023-04-20T02:03:25;102037.31;;;7.97;47.45
68075;BME280;54864;52.002;5.468;2023-04-20T02:04:27;102043.50;;;7.94;47.97
68075;BME280;54864;52.002;5.468;2023-04-20T02:05:28;102046.06;;;7.99;48.85
68075;BME280;54864;52.002;5.468;2023-04-20T02:06:30;102044.38;;;7.95;48.21
68075;BME280;54864;52.002;5.468;2023-04-20T02:07:32;102035.75;;;7.85;48.46
68075;BME280;54864;52.002;5.468;2023-04-20T02:08:35;102040.09;;;7.88;49.13
68075;BME280;54864;52.002;5.468;2023-04-20T02:09:36;102039.28;;;7.83;48.95
68075;BME280;54864;52.002;5.468;2023-04-20T02:10:37;102041.81;;;7.89;49.04
68075;BME280;54864;52.002;5.468;2023-04-20T02:11:38;102039.09;;;7.95;49.03
68075;BME280;54864;52.002;5.468;2023-04-20T02:12:40;102035.50;;;8.02;48.59
68075;BME280;54864;52.002;5.468;2023-04-20T02:13:41;102033.09;;;7.87;48.92
68075;BME280;54864;52.002;5.468;2023-04-20T02:14:42;102034.09;;;7.77;49.35
68075;BME280;54864;52.002;5.468;2023-04-20T02:15:46;102032.06;;;7.97;49.44
68075;BME280;54864;52.002;5.468;2023-04-20T02:16:48;102028.66;;;7.92;49.60
68075;BME280;54864;52.002;5.468;2023-04-20T02:17:49;102023.97;;;8.11;48.84
68075;BME280;54864;52.002;5.468;2023-04-20T02:18:51;102030.88;;;8.18;49.07
68075;BME280;54864;52.002;5.468;2023-04-20T02:19:52;102020.88;;;7.84;49.47
68075;BME280;54864;52.002;5.468;2023-04-20T02:20:53;102018.88;;;8.02;49.85
68075;BME280;54864;52.002;5.468;2023-04-20T02:21:54;102020.59;;;8.03;49.91
68075;BME280;54864;52.002;5.468;2023-04-20T02:22:56;102012.66;;;8.07;49.45
68075;BME280;54864;52.002;5.468;2023-04-20T02:23:58;102016.31;;;7.97;49.78
68075;BME280;54864;52.002;5.468;2023-04-20T02:25:00;102012.16;;;7.84;49.49
68075;BME280;54864;52.002;5.468;2023-04-20T02:26:02;102016.38;;;7.94;49.77
68075;BME280;54864;52.002;5.468;2023-04-20T02:27:04;102011.19;;;7.89;50.27
68075;BME280;54864;52.002;5.468;2023-04-20T02:28:05;102014.56;;;7.98;50.69
68075;BME280;54864;52.002;5.468;2023-04-20T02:29:06;102004.97;;;7.95;50.43
68075;BME280;54864;52.002;5.468;2023-04-20T02:30:08;102009.13;;;8.10;49.99
68075;BME280;54864;52.002;5.468;2023-04-20T02:31:09;102002.75;;;8.24;49.30
68075;BME280;54864;52.002;5.468;2023-04-20T02:32:10;102000.22;;;8.18;50.64
68075;BME280;54864;52.002;5.468;2023-04-20T02:33:12;102000.16;;;8.21;50.02
68075;BME280;54864;52.002;5.468;2023-04-20T02:34:13;101996.00;;;8.08;50.16
68075;BME280;54864;52.002;5.468;2023-04-20T02:35:16;101989.59;;;8.24;49.42
68075;BME280;54864;52.002;5.468;2023-04-20T02:36:17;101997.44;;;8.27;49.91
68075;BME280;54864;52.002;5.468;2023-04-20T02:37:19;101992.09;;;8.32;49.95
68075;BME280;54864;52.002;5.468;2023-04-20T02:38:20;101994.81;;;8.27;49.66
68075;BME280;54864;52.002;5.468;2023-04-20T02:39:23;101998.50;;;8.16;50.24
68075;BME280;54864;52.002;5.468;2023-04-20T02:40:24;101991.22;;;8.32;50.10
68075;BME280;54864;52.002;5.468;2023-04-20T02:41:26;101997.41;;;8.29;50.46
68075;BME280;54864;52.002;5.468;2023-04-20T02:42:27;101993.19;;;8.20;49.99
68075;BME280;54864;52.002;5.468;2023-04-20T02:43:28;101993.19;;;8.19;51.32
68075;BME280;54864;52.002;5.468;2023-04-20T02:44:29;101994.13;;;8.16;49.98
68075;BME280;54864;52.002;5.468;2023-04-20T02:45:31;101990.41;;;8.30;50.97
68075;BME280;54864;52.002;5.468;2023-04-20T02:46:32;101992.13;;;8.31;50.12
68075;BME280;54864;52.002;5.468;2023-04-20T02:47:33;101992.09;;;8.32;50.75
68075;BME280;54864;52.002;5.468;2023-04-20T02:48:34;101989.28;;;8.46;50.35
68075;BME280;54864;52.002;5.468;2023-04-20T02:49:36;101986.56;;;8.52;50.55
68075;BME280;54864;52.002;5.468;2023-04-20T02:50:38;101983.81;;;8.58;50.49
68075;BME280;54864;52.002;5.468;2023-04-20T02:51:39;101986.47;;;8.56;50.54
68075;BME280;54864;52.002;5.468;2023-04-20T02:52:40;101983.81;;;8.58;50.28
68075;BME280;54864;52.002;5.468;2023-04-20T02:53:42;101981.94;;;8.65;50.49
68075;BME280;54864;52.002;5.468;2023-04-20T02:54:44;101983.63;;;8.67;50.31
68075;BME280;54864;52.002;5.468;2023-04-20T02:55:46;101988.00;;;8.68;50.22
68075;BME280;54864;52.002;5.468;2023-04-20T02:56:47;101978.25;;;8.73;50.84
68075;BME280;54864;52.002;5.468;2023-04-20T02:57:49;101979.81;;;8.83;50.42
68075;BME280;54864;52.002;5.468;2023-04-20T02:58:49;101974.81;;;8.71;50.61
68075;BME280;54864;52.002;5.468;2023-04-20T02:59:51;101980.84;;;8.76;50.30
68075;BME280;54864;52.002;5.468;2023-04-20T03:00:58;101980.09;;;8.70;50.40
68075;BME280;54864;52.002;5.468;2023-04-20T03:01:59;101976.50;;;8.74;49.53
68075;BME280;54864;52.002;5.468;2023-04-20T03:03:00;101975.88;;;8.61;51.10
68075;BME280;54864;52.002;5.468;2023-04-20T03:04:02;101968.41;;;8.84;51.44
68075;BME280;54864;52.002;5.468;2023-04-20T03:05:04;101966.56;;;8.89;49.73
68075;BME280;54864;52.002;5.468;2023-04-20T03:06:06;101960.41;;;8.90;49.97
68075;BME280;54864;52.002;5.468;2023-04-20T03:07:07;101968.78;;;9.09;49.29
68075;BME280;54864;52.002;5.468;2023-04-20T03:08:09;101972.97;;;9.19;49.82
68075;BME280;54864;52.002;5.468;2023-04-20T03:09:10;101970.19;;;9.27;49.98
68075;BME280;54864;52.002;5.468;2023-04-20T03:10:13;101970.50;;;9.12;50.48
68075;BME280;54864;52.002;5.468;2023-04-20T03:11:14;101967.66;;;9.23;50.78
68075;BME280;54864;52.002;5.468;2023-04-20T03:12:16;101965.72;;;9.31;49.45
68075;BME280;54864;52.002;5.468;2023-04-20T03:13:17;101962.19;;;9.32;50.10
68075;BME280;54864;52.002;5.468;2023-04-20T03:14:22;101963.81;;;9.37;49.53
68075;BME280;54864;52.002;5.468;2023-04-20T03:15:22;101966.47;;;9.36;49.60
68075;BME280;54864;52.002;5.468;2023-04-20T03:16:24;101965.44;;;9.43;50.31
68075;BME280;54864;52.002;5.468;2023-04-20T03:17:25;101962.81;;;9.43;49.77
68075;BME280;54864;52.002;5.468;2023-04-20T03:18:27;101961.81;;;9.48;49.83
68075;BME280;54864;52.002;5.468;2023-04-20T03:19:28;101966.28;;;9.45;50.38
68075;BME280;54864;52.002;5.468;2023-04-20T03:20:29;101962.66;;;9.49;49.88
68075;BME280;54864;52.002;5.468;2023-04-20T03:21:30;101963.72;;;9.42;49.64
68075;BME280;54864;52.002;5.468;2023-04-20T03:22:32;101968.00;;;9.46;49.78
68075;BME280;54864;52.002;5.468;2023-04-20T03:23:33;101958.06;;;9.20;50.07
68075;BME280;54864;52.002;5.468;2023-04-20T03:24:34;101954.19;;;9.36;49.86
68075;BME280;54864;52.002;5.468;2023-04-20T03:25:37;101958.00;;;9.23;49.81
68075;BME280;54864;52.002;5.468;2023-04-20T03:26:38;101951.78;;;9.26;50.23
68075;BME280;54864;52.002;5.468;2023-04-20T03:27:39;101953.56;;;9.25;50.30
68075;BME280;54864;52.002;5.468;2023-04-20T03:28:41;101951.47;;;9.39;50.69
68075;BME280;54864;52.002;5.468;2023-04-20T03:29:42;101953.53;;;9.27;50.60
68075;BME280;54864;52.002;5.468;2023-04-20T03:30:47;101944.75;;;9.26;50.79
68075;BME280;54864;52.002;5.468;2023-04-20T03:31:47;101950.03;;;9.26;49.96
68075;BME280;54864;52.002;5.468;2023-04-20T03:32:49;101951.25;;;9.08;50.85
68075;BME280;54864;52.002;5.468;2023-04-20T03:33:49;101943.88;;;9.27;50.97
68075;BME280;54864;52.002;5.468;2023-04-20T03:34:51;101942.75;;;9.37;50.43
68075;BME280;54864;52.002;5.468;2023-04-20T03:35:52;101938.31;;;9.39;50.47
68075;BME280;54864;52.002;5.468;2023-04-20T03:36:54;101938.28;;;9.41;50.85
68075;BME280;54864;52.002;5.468;2023-04-20T03:37:55;101935.00;;;9.31;51.01
68075;BME280;54864;52.002;5.468;2023-04-20T03:38:56;101939.91;;;9.46;50.31
68075;BME280;54864;52.002;5.468;2023-04-20T03:39:58;101937.22;;;9.49;50.69
68075;BME280;54864;52.002;5.468;2023-04-20T03:41:00;101934.00;;;9.37;49.88
68075;BME280;54864;52.002;5.468;2023-04-20T03:42:02;101923.72;;;9.26;50.60
68075;BME280;54864;52.002;5.468;2023-04-20T03:43:03;101929.47;;;9.43;51.50
68075;BME280;54864;52.002;5.468;2023-04-20T03:44:05;101924.06;;;9.49;51.01
68075;BME280;54864;52.002;5.468;2023-04-20T03:45:07;101930.44;;;9.39;50.64
68075;BME280;54864;52.002;5.468;2023-04-20T03:46:09;101920.53;;;9.50;50.56
68075;BME280;54864;52.002;5.468;2023-04-20T03:47:09;101919.34;;;9.25;50.50
68075;BME280;54864;52.002;5.468;2023-04-20T03:48:11;101921.81;;;9.33;51.24
68075;BME280;54864;52.002;5.468;2023-04-20T03:49:12;101928.53;;;9.46;51.58
68075;BME280;54864;52.002;5.468;2023-04-20T03:50:14;101926.75;;;9.46;50.69
68075;BME280;54864;52.002;5.468;2023-04-20T03:51:14;101924.88;;;9.51;50.82
68075;BME280;54864;52.002;5.468;2023-04-20T03:52:16;101919.94;;;9.38;49.31
68075;BME280;54864;52.002;5.468;2023-04-20T03:53:17;101930.22;;;9.48;50.15
68075;BME280;54864;52.002;5.468;2023-04-20T03:54:18;101922.50;;;9.41;50.08
68075;BME280;54864;52.002;5.468;2023-04-20T03:55:19;101926.00;;;9.41;50.76
68075;BME280;54864;52.002;5.468;2023-04-20T03:56:23;101929.28;;;9.51;50.38
68075;BME280;54864;52.002;5.468;2023-04-20T03:57:26;101919.66;;;9.50;50.46
68075;BME280;54864;52.002;5.468;2023-04-20T03:58:27;101928.44;;;9.49;49.77
68075;BME280;54864;52.002;5.468;2023-04-20T03:59:28;101918.56;;;9.59;50.33
68075;BME280;54864;52.002;5.468;2023-04-20T04:00:30;101919.97;;;9.73;50.24
68075;BME280;54864;52.002;5.468;2023-04-20T04:01:31;101919.94;;;9.75;50.24
68075;BME280;54864;52.002;5.468;2023-04-20T04:02:32;101914.81;;;9.69;49.91
68075;BME280;54864;52.002;5.468;2023-04-20T04:03:36;101912.00;;;9.78;48.96
68075;BME280;54864;52.002;5.468;2023-04-20T04:04:39;101914.66;;;9.75;50.02
68075;BME280;54864;52.002;5.468;2023-04-20T04:05:40;101910.03;;;9.86;49.50
68075;BME280;54864;52.002;5.468;2023-04-20T04:06:42;101910.84;;;9.88;49.08
68075;BME280;54864;52.002;5.468;2023-04-20T04:07:43;101915.16;;;9.92;49.34
68075;BME280;54864;52.002;5.468;2023-04-20T04:08:47;101909.00;;;9.92;49.88
68075;BME280;54864;52.002;5.468;2023-04-20T04:09:50;101902.66;;;10.00;49.14
68075;BME280;54864;52.002;5.468;2023-04-20T04:10:50;101913.78;;;10.11;48.98
68075;BME280;54864;52.002;5.468;2023-04-20T04:11:53;101907.75;;;10.06;49.18
68075;BME280;54864;52.002;5.468;2023-04-20T04:12:54;101902.47;;;10.06;48.80
68075;BME280;54864;52.002;5.468;2023-04-20T04:13:56;101910.44;;;10.05;49.24
68075;BME280;54864;52.002;5.468;2023-04-20T04:14:57;101909.59;;;10.03;48.74
68075;BME280;54864;52.002;5.468;2023-04-20T04:15:58;101912.59;;;9.89;49.26
68075;BME280;54864;52.002;5.468;2023-04-20T04:16:59;101906.56;;;9.84;49.38
68075;BME280;54864;52.002;5.468;2023-04-20T04:18:01;101905.91;;;9.76;49.06
68075;BME280;54864;52.002;5.468;2023-04-20T04:19:01;101896.03;;;9.84;49.00
68075;BME280;54864;52.002;5.468;2023-04-20T04:20:05;101900.28;;;9.90;49.59
68075;BME280;54864;52.002;5.468;2023-04-20T04:21:07;101896.81;;;9.88;50.00
68075;BME280;54864;52.002;5.468;2023-04-20T04:22:09;101897.50;;;9.96;49.51
68075;BME280;54864;52.002;5.468;2023-04-20T04:23:10;101894.84;;;9.96;50.36
68075;BME280;54864;52.002;5.468;2023-04-20T04:24:12;101890.88;;;9.79;49.29
68075;BME280;54864;52.002;5.468;2023-04-20T04:25:12;101885.47;;;9.85;49.24
68075;BME280;54864;52.002;5.468;2023-04-20T04:26:14;101886.13;;;9.94;49.73
68075;BME280;54864;52.002;5.468;2023-04-20T04:27:16;101882.44;;;10.01;49.36
68075;BME280;54864;52.002;5.468;2023-04-20T04:28:18;101878.84;;;10.03;49.19
68075;BME280;54864;52.002;5.468;2023-04-20T04:29:19;101882.44;;;10.01;49.01
68075;BME280;54864;52.002;5.468;2023-04-20T04:30:21;101876.84;;;10.13;49.45
68075;BME280;54864;52.002;5.468;2023-04-20T04:31:23;101874.91;;;10.20;49.11
68075;BME280;54864;52.002;5.468;2023-04-20T04:32:25;101872.97;;;10.28;49.46
68075;BME280;54864;52.002;5.468;2023-04-20T04:33:26;101868.59;;;10.27;49.28
68075;BME280;54864;52.002;5.468;2023-04-20T04:34:28;101870.66;;;10.14;49.48
68075;BME280;54864;52.002;5.468;2023-04-20T04:35:29;101864.19;;;9.93;48.99
68075;BME280;54864;52.002;5.468;2023-04-20T04:36:30;101869.47;;;9.93;49.46
68075;BME280;54864;52.002;5.468;2023-04-20T04:37:31;101858.59;;;10.05;49.49
68075;BME280;54864;52.002;5.468;2023-04-20T04:38:33;101860.25;;;10.09;49.30
68075;BME280;54864;52.002;5.468;2023-04-20T04:39:37;101866.50;;;10.05;49.65
68075;BME280;54864;52.002;5.468;2023-04-20T04:40:39;101855.06;;;10.06;49.73
68075;BME280;54864;52.002;5.468;2023-04-20T04:41:40;101847.00;;;10.12;50.26
68075;BME280;54864;52.002;5.468;2023-04-20T04:42:44;101852.56;;;10.02;50.22
68075;BME280;54864;52.002;5.468;2023-04-20T04:43:47;101851.47;;;10.09;50.33
68075;BME280;54864;52.002;5.468;2023-04-20T04:44:49;101849.47;;;10.18;49.79
68075;BME280;54864;52.002;5.468;2023-04-20T04:45:51;101856.47;;;10.20;50.00
68075;BME280;54864;52.002;5.468;2023-04-20T04:46:54;101853.94;;;10.15;49.65
68075;BME280;54864;52.002;5.468;2023-04-20T04:47:55;101848.59;;;10.18;50.11
68075;BME280;54864;52.002;5.468;2023-04-20T04:48:58;101846.78;;;10.22;50.08
68075;BME280;54864;52.002;5.468;2023-04-20T04:50:00;101848.59;;;10.18;50.07
68075;BME280;54864;52.002;5.468;2023-04-20T04:51:02;101849.44;;;10.20;50.21
68075;BME280;54864;52.002;5.468;2023-04-20T04:52:03;101850.22;;;10.24;50.28
68075;BME280;54864;52.002;5.468;2023-04-20T04:53:05;101843.66;;;10.06;50.39
68075;BME280;54864;52.002;5.468;2023-04-20T04:54:06;101854.97;;;10.09;50.33
68075;BME280;54864;52.002;5.468;2023-04-20T04:55:08;101853.09;;;10.14;50.73
68075;BME280;54864;52.002;5.468;2023-04-20T04:56:09;101848.97;;;10.04;50.44
68075;BME280;54864;52.002;5.468;2023-04-20T04:57:11;101846.28;;;10.06;50.76
68075;BME280;54864;52.002;5.468;2023-04-20T04:58:14;101850.75;;;10.04;50.97
68075;BME280;54864;52.002;5.468;2023-04-20T04:59:15;101848.50;;;9.89;51.66
68075;BME280;54864;52.002;5.468;2023-04-20T05:00:17;101851.63;;;10.03;51.20
68075;BME280;54864;52.002;5.468;2023-04-20T05:01:19;101856.38;;;9.90;51.72
68075;BME280;54864;52.002;5.468;2023-04-20T05:02:20;101855.63;;;9.85;50.87
68075;BME280;54864;52.002;5.468;2023-04-20T05:03:22;101855.03;;;9.72;51.54
68075;BME280;54864;52.002;5.468;2023-04-20T05:04:23;101864.53;;;9.79;52.26
68075;BME280;54864;52.002;5.468;2023-04-20T05:05:24;101854.56;;;9.92;51.13
68075;BME280;54864;52.002;5.468;2023-04-20T05:06:25;101852.66;;;9.97;52.14
68075;BME280;54864;52.002;5.468;2023-04-20T05:07:27;101848.94;;;10.06;52.06
68075;BME280;54864;52.002;5.468;2023-04-20T05:08:28;101851.06;;;9.92;52.12
68075;BME280;54864;52.002;5.468;2023-04-20T05:09:29;101853.63;;;9.95;52.28
68075;BME280;54864;52.002;5.468;2023-04-20T05:10:32;101849.56;;;9.81;52.19
68075;BME280;54864;52.002;5.468;2023-04-20T05:11:34;101857.38;;;9.49;52.91
68075;BME280;54864;52.002;5.468;2023-04-20T05:12:35;101858.09;;;9.56;53.35
68075;BME280;54864;52.002;5.468;2023-04-20T05:13:38;101848.00;;;9.73;52.20
68075;BME280;54864;52.002;5.468;2023-04-20T05:14:39;101854.47;;;9.60;52.70
68075;BME280;54864;52.002;5.468;2023-04-20T05:15:41;101848.91;;;9.72;53.30
68075;BME280;54864;52.002;5.468;2023-04-20T05:16:42;101852.25;;;9.80;52.61
68075;BME280;54864;52.002;5.468;2023-04-20T05:17:43;101848.44;;;9.92;51.96
68075;BME280;54864;52.002;5.468;2023-04-20T05:18:47;101852.72;;;9.96;52.84
68075;BME280;54864;52.002;5.468;2023-04-20T05:19:49;101851.56;;;10.06;53.32
68075;BME280;54864;52.002;5.468;2023-04-20T05:20:49;101857.50;;;9.80;53.29
68075;BME280;54864;52.002;5.468;2023-04-20T05:21:51;101862.03;;;9.73;52.92
68075;BME280;54864;52.002;5.468;2023-04-20T05:22:52;101863.59;;;9.82;52.57
68075;BME280;54864;52.002;5.468;2023-04-20T05:23:53;101858.06;;;9.93;53.15
68075;BME280;54864;52.002;5.468;2023-04-20T05:24:54;101864.88;;;9.66;53.33
68075;BME280;54864;52.002;5.468;2023-04-20T05:25:56;101857.72;;;9.71;53.44